Time;durP1;ratioP1;P1;durP2;ratioP2;P2;SDS_P1;SDS_P2;PMS_P1;PMS_P2;Temp;Humidity;BMP_temperature;BMP_pressure;BME280_temperature;BME280_humidity;BME280_pressure;Samples;Min_cycle;Max_cycle;Signal;HPM_P1;HPM_P2
2023/06/20 00:00:55;;;;;;;7.35;5.65;;;;;;;20.46;60.30;99668.34;4402205;32;20145;-87
2023/06/20 00:03:20;;;;;;;8.27;5.95;;;;;;;20.51;60.31;99668.84;4408247;32;29864;-86
2023/06/20 00:05:45;;;;;;;10.45;5.82;;;;;;;20.40;60.30;99676.72;4396343;32;20189;-86
2023/06/20 00:08:11;;;;;;;7.87;5.97;;;;;;;20.56;60.32;99677.28;4406213;32;20201;-86
2023/06/20 00:10:36;;;;;;;7.37;5.70;;;;;;;20.46;60.31;99671.84;4386887;32;20150;-86
2023/06/20 00:13:02;;;;;;;8.75;5.87;;;;;;;20.78;60.31;99668.59;4404607;32;20885;-87
2023/06/20 00:15:28;;;;;;;7.53;5.90;;;;;;;20.49;60.31;99674.25;4402224;32;20129;-87
2023/06/20 00:17:54;;;;;;;7.97;6.12;;;;;;;20.46;60.30;99673.63;4409151;32;20181;-86
2023/06/20 00:20:19;;;;;;;8.57;5.60;;;;;;;20.32;60.30;99679.91;4399697;32;20102;-86
2023/06/20 00:22:45;;;;;;;9.57;7.05;;;;;;;20.33;60.30;99676.28;4404777;32;20158;-87
2023/06/20 00:25:10;;;;;;;7.55;5.68;;;;;;;20.12;60.29;99680.53;4402104;32;20114;-86
2023/06/20 00:27:36;;;;;;;8.70;5.93;;;;;;;20.34;60.30;99683.28;4409046;32;20109;-87
2023/06/20 00:30:01;;;;;;;9.75;5.60;;;;;;;20.19;60.29;99685.25;4409279;32;20159;-87
2023/06/20 00:32:26;;;;;;;7.45;5.97;;;;;;;20.16;60.29;99684.62;4406010;32;29495;-86
2023/06/20 00:34:52;;;;;;;8.38;5.75;;;;;;;20.27;60.30;99681.19;4399246;32;20161;-87
2023/06/20 00:37:17;;;;;;;8.88;5.75;;;;;;;20.37;60.30;99682.22;4394464;32;20181;-86
2023/06/20 00:39:43;;;;;;;7.78;6.10;;;;;;;20.27;60.29;99676.75;4398652;32;23350;-86
2023/06/20 00:42:18;;;;;;;7.37;5.90;;;;;;;20.33;60.30;99681.59;4396495;32;20086;-86
2023/06/20 00:44:44;;;;;;;7.55;5.97;;;;;;;20.52;60.30;99674.03;4393991;32;20745;-86
2023/06/20 00:47:09;;;;;;;10.02;5.95;;;;;;;20.48;60.31;99674.38;4420667;32;20098;-86
2023/06/20 00:49:35;;;;;;;11.38;6.07;;;;;;;20.07;60.28;99685.28;4396289;32;20105;-86
2023/06/20 00:52:02;;;;;;;8.82;6.18;;;;;;;20.13;60.29;99685.72;4395760;32;20086;-86
2023/06/20 00:54:28;;;;;;;9.38;6.05;;;;;;;20.05;60.28;99684.56;4406777;32;20368;-86
2023/06/20 00:56:53;;;;;;;10.63;6.53;;;;;;;20.10;60.29;99683.25;4405108;32;20140;-86
2023/06/20 00:59:19;;;;;;;8.27;5.80;;;;;;;20.10;60.29;99687.69;4412211;32;26421;-86
2023/06/20 01:01:44;;;;;;;8.15;6.07;;;;;;;20.27;60.29;99679.41;4395255;32;20488;-86
2023/06/20 01:04:10;;;;;;;9.73;5.97;;;;;;;20.29;60.29;99677.47;4400064;32;20412;-85
2023/06/20 01:06:42;;;;;;;8.05;6.40;;;;;;;20.36;60.29;99685.84;4405198;32;20106;-86
2023/06/20 01:09:16;;;;;;;9.30;6.00;;;;;;;20.06;60.28;99680.94;4416938;32;20089;-86
2023/06/20 01:12:13;;;;;;;11.82;6.53;;;;;;;19.87;60.27;99690.22;4423085;32;20108;-86
2023/06/20 01:15:04;;;;;;;10.23;6.75;;;;;;;19.84;60.27;99689.56;4383513;32;20106;-86
2023/06/20 01:18:06;;;;;;;9.15;6.75;;;;;;;19.70;60.26;99690.56;4380684;32;20470;-86
2023/06/20 01:20:35;;;;;;;9.18;6.47;;;;;;;20.08;60.29;99687.81;4402685;32;20779;-86
2023/06/20 01:23:15;;;;;;;8.68;6.40;;;;;;;19.85;60.28;99691.25;4384400;32;20102;-87
2023/06/20 01:26:02;;;;;;;8.70;6.30;;;;;;;19.76;60.26;99687.47;4422846;32;20094;-87
2023/06/20 01:28:38;;;;;;;8.40;6.53;;;;;;;20.08;60.29;99693.09;4409070;32;20105;-87
2023/06/20 01:31:14;;;;;;;8.73;6.50;;;;;;;19.86;60.28;99691.16;4422670;32;20093;-87
2023/06/20 01:33:48;;;;;;;10.35;6.18;;;;;;;19.66;60.26;99691.75;4394368;32;20665;-87
2023/06/20 01:36:14;;;;;;;11.70;6.32;;;;;;;19.70;60.27;99690.56;4396332;32;20128;-87
2023/06/20 01:38:40;;;;;;;8.48;6.07;;;;;;;19.73;60.27;99682.41;4406461;32;20132;-87
2023/06/20 01:41:05;;;;;;;7.70;6.20;;;;;;;19.60;60.25;99689.50;4399670;32;24190;-88
2023/06/20 01:43:30;;;;;;;8.80;5.62;;;;;;;19.57;60.26;99687.09;4394740;32;20458;-87
2023/06/20 01:45:56;;;;;;;7.97;5.95;;;;;;;19.61;60.25;99684.12;4393735;32;20181;-87
2023/06/20 01:48:22;;;;;;;8.77;6.22;;;;;;;19.51;60.25;99693.63;4404846;32;20298;-87
2023/06/20 01:50:47;;;;;;;9.60;6.78;;;;;;;19.58;60.26;99683.50;4406196;32;20090;-87
2023/06/20 01:53:13;;;;;;;8.27;6.55;;;;;;;19.64;60.26;99683.09;4390505;32;20758;-87
2023/06/20 01:55:41;;;;;;;8.35;6.10;;;;;;;19.63;60.26;99678.72;4383435;32;20097;-87
2023/06/20 01:58:06;;;;;;;9.48;6.90;;;;;;;19.68;60.25;99671.34;4394973;32;20117;-87
2023/06/20 02:00:32;;;;;;;10.32;6.57;;;;;;;19.60;60.26;99679.78;4393762;32;20165;-87
2023/06/20 02:02:57;;;;;;;8.77;6.40;;;;;;;19.55;60.26;99678.44;4390545;32;20148;-87
2023/06/20 02:05:23;;;;;;;8.63;6.53;;;;;;;19.49;60.25;99674.41;4380414;32;20126;-87
2023/06/20 02:07:49;;;;;;;9.82;6.50;;;;;;;19.45;60.25;99674.72;4404873;32;20088;-87
2023/06/20 02:10:14;;;;;;;9.25;5.95;;;;;;;19.46;60.26;99677.25;4392934;32;20169;-87
2023/06/20 02:12:39;;;;;;;10.35;6.75;;;;;;;19.59;60.26;99685.19;4402911;32;20385;-87
2023/06/20 02:15:06;;;;;;;11.63;7.10;;;;;;;19.53;60.25;99680.31;4408513;32;20098;-87
2023/06/20 02:17:31;;;;;;;10.55;7.35;;;;;;;19.47;60.25;99681.59;4393402;32;20486;-87
2023/06/20 02:19:56;;;;;;;10.50;7.00;;;;;;;19.33;60.25;99676.41;4384313;32;20132;-87
2023/06/20 02:22:23;;;;;;;8.18;6.70;;;;;;;19.32;60.24;99680.84;4391848;32;20138;-86
2023/06/20 02:24:49;;;;;;;9.77;6.82;;;;;;;19.33;60.25;99681.69;4406108;32;20106;-85
2023/06/20 02:27:15;;;;;;;9.57;6.90;;;;;;;19.36;60.24;99683.25;4391901;32;20502;-86
2023/06/20 02:29:40;;;;;;;8.82;6.68;;;;;;;19.44;60.25;99688.87;4393273;32;20090;-87
2023/06/20 02:32:06;;;;;;;12.45;7.62;;;;;;;19.49;60.25;99692.88;4390695;32;34628;-87
2023/06/20 02:34:33;;;;;;;12.70;6.47;;;;;;;19.44;60.24;99688.87;4408748;32;20169;-87
2023/06/20 02:36:59;;;;;;;9.70;7.37;;;;;;;19.45;60.24;99693.22;4383472;32;20113;-87
2023/06/20 02:39:24;;;;;;;11.50;6.85;;;;;;;19.19;60.24;99698.47;4405961;32;20161;-86
2023/06/20 02:41:50;;;;;;;11.60;7.37;;;;;;;19.22;60.23;99700.06;4404257;32;20105;-86
2023/06/20 02:44:15;;;;;;;11.40;6.45;;;;;;;19.14;60.23;99703.19;4392559;32;28304;-86
2023/06/20 02:47:04;;;;;;;8.75;6.35;;;;;;;19.21;60.23;99701.00;4403853;32;20474;-86
2023/06/20 02:49:54;;;;;;;11.65;7.22;;;;;;;19.32;60.24;99696.69;4405467;32;20536;-85
2023/06/20 02:52:32;;;;;;;9.60;6.97;;;;;;;19.17;60.24;99691.62;4412965;32;20145;-87
2023/06/20 02:55:19;;;;;;;9.93;7.10;;;;;;;19.16;60.23;99690.75;4395540;32;20101;-88
2023/06/20 02:57:46;;;;;;;9.07;6.35;;;;;;;19.32;60.25;99691.41;4422472;32;20109;-87
2023/06/20 03:00:11;;;;;;;9.73;6.47;;;;;;;19.17;60.23;99687.19;4421977;32;20156;-85
2023/06/20 03:03:08;;;;;;;9.73;7.20;;;;;;;19.13;60.23;99701.50;4405800;32;20086;-86
2023/06/20 03:05:35;;;;;;;8.18;6.47;;;;;;;19.10;60.23;99706.16;4381097;32;20094;-86
2023/06/20 03:08:01;;;;;;;11.20;6.78;;;;;;;19.12;60.23;99705.09;4407641;32;20113;-85
2023/06/20 03:10:26;;;;;;;14.65;7.25;;;;;;;19.04;60.22;99707.44;4422149;32;20392;-85
2023/06/20 03:12:52;;;;;;;10.45;7.00;;;;;;;19.06;60.22;99712.59;4407475;32;20196;-85
2023/06/20 03:15:17;;;;;;;10.30;6.85;;;;;;;19.08;60.23;99714.19;4396108;32;20161;-86
2023/06/20 03:17:42;;;;;;;10.00;7.28;;;;;;;19.45;60.24;99709.88;4408651;32;20098;-86
2023/06/20 03:20:09;;;;;;;10.52;7.15;;;;;;;19.31;60.24;99709.97;4423071;32;34901;-86
2023/06/20 03:22:34;;;;;;;15.93;7.32;;;;;;;19.17;60.23;99713.59;4409843;32;20093;-86
2023/06/20 03:25:00;;;;;;;9.50;7.07;;;;;;;19.19;60.23;99714.31;4407188;32;20128;-85
2023/06/20 03:27:25;;;;;;;12.82;7.57;;;;;;;19.18;60.23;99719.69;4419216;32;36908;-85
2023/06/20 03:29:51;;;;;;;11.57;7.00;;;;;;;19.28;60.24;99721.59;4423617;32;20136;-85
2023/06/20 03:32:16;;;;;;;11.07;6.97;;;;;;;19.21;60.23;99722.97;4408176;32;29969;-86
2023/06/20 03:34:41;;;;;;;8.60;6.87;;;;;;;19.32;60.24;99719.59;4406451;32;33577;-85
2023/06/20 03:37:07;;;;;;;11.23;7.75;;;;;;;19.41;60.25;99728.69;4406365;32;20180;-86
2023/06/20 03:39:32;;;;;;;13.10;7.15;;;;;;;19.37;60.24;99735.94;4394510;32;20406;-87
2023/06/20 03:41:58;;;;;;;9.55;7.22;;;;;;;19.53;60.25;99733.97;4405362;32;20129;-86
2023/06/20 03:44:23;;;;;;;8.90;6.68;;;;;;;19.55;60.25;99732.06;4397058;32;20175;-85
2023/06/20 03:46:48;;;;;;;8.68;6.57;;;;;;;19.80;60.26;99733.84;4422636;32;24339;-85
2023/06/20 03:49:14;;;;;;;11.63;7.43;;;;;;;19.96;60.28;99738.91;4409107;32;20085;-85
2023/06/20 03:51:39;;;;;;;9.13;6.90;;;;;;;20.01;60.28;99735.94;4408700;32;20090;-87
2023/06/20 03:54:05;;;;;;;11.70;7.18;;;;;;;19.85;60.27;99737.00;4409285;32;20193;-85
2023/06/20 03:56:30;;;;;;;11.95;7.07;;;;;;;19.83;60.26;99732.78;4409530;32;20443;-85
2023/06/20 03:58:55;;;;;;;9.48;6.72;;;;;;;20.02;60.28;99730.53;4409427;32;20130;-85
2023/06/20 04:01:24;;;;;;;8.32;6.82;;;;;;;20.13;60.28;99737.72;4422911;32;23383;-86
2023/06/20 04:03:51;;;;;;;12.37;6.97;;;;;;;20.45;60.29;99728.31;4423880;32;20166;-86
2023/06/20 04:06:16;;;;;;;9.68;6.70;;;;;;;20.48;60.30;99733.38;4408503;32;20125;-85
2023/06/20 04:08:42;;;;;;;10.43;6.72;;;;;;;20.72;60.31;99735.19;4394405;32;20113;-86
2023/06/20 04:11:07;;;;;;;10.13;6.97;;;;;;;20.85;60.31;99728.03;4406088;32;20113;-86
2023/06/20 04:13:33;;;;;;;10.85;6.82;;;;;;;20.96;60.32;99728.06;4396605;32;20660;-86
2023/06/20 04:15:59;;;;;;;10.65;7.28;;;;;;;21.11;60.33;99716.31;4423176;32;20153;-85
2023/06/20 04:18:24;;;;;;;9.57;6.87;;;;;;;21.24;60.33;99708.31;4423437;32;20135;-86
2023/06/20 04:20:49;;;;;;;9.27;6.25;;;;;;;21.50;60.35;99714.22;4396509;32;20164;-87
2023/06/20 04:23:15;;;;;;;10.65;7.05;;;;;;;21.59;60.36;99708.22;4397001;32;20137;-85
2023/06/20 04:25:40;;;;;;;9.95;7.18;;;;;;;21.75;60.36;99713.16;4395732;32;20161;-87
2023/06/20 04:28:06;;;;;;;11.05;6.40;;;;;;;21.90;60.37;99705.81;4380981;32;20125;-85
2023/06/20 04:30:31;;;;;;;8.68;7.00;;;;;;;22.21;60.39;99710.34;4405393;32;20162;-85
2023/06/20 04:32:57;;;;;;;9.18;6.72;;;;;;;22.47;60.40;99704.75;4423530;32;20161;-85
2023/06/20 04:35:22;;;;;;;12.80;6.47;;;;;;;22.47;60.40;99708.25;4423146;32;20089;-85
2023/06/20 04:37:51;;;;;;;10.07;7.15;;;;;;;22.49;60.41;99716.09;4406568;32;29134;-84
2023/06/20 04:40:19;;;;;;;12.57;7.30;;;;;;;22.54;60.40;99708.59;4419448;32;20116;-85
2023/06/20 04:42:47;;;;;;;12.70;7.25;;;;;;;22.76;60.42;99702.38;4396735;32;20498;-84
2023/06/20 04:45:13;;;;;;;8.90;6.65;;;;;;;22.70;60.41;99710.81;4396541;32;20102;-85
2023/06/20 04:47:41;;;;;;;12.52;6.97;;;;;;;22.72;60.42;99717.72;4423492;32;20144;-86
2023/06/20 04:50:09;;;;;;;11.90;6.68;;;;;;;22.86;60.42;99711.25;4422567;32;20109;-85
2023/06/20 04:52:34;;;;;;;10.13;7.37;;;;;;;22.96;60.43;99710.38;4406641;32;20114;-85
2023/06/20 04:55:02;;;;;;;10.35;7.10;;;;;;;22.92;60.42;99716.06;4406180;32;20469;-85
2023/06/20 04:57:32;;;;;;;9.35;7.30;;;;;;;23.21;60.44;99716.28;4423391;32;20106;-85
2023/06/20 04:59:57;;;;;;;11.27;6.53;;;;;;;23.22;60.44;99712.66;4409116;32;20487;-85
2023/06/20 05:02:23;;;;;;;11.90;7.45;;;;;;;23.38;60.45;99718.31;4423397;32;20098;-86
2023/06/20 05:04:49;;;;;;;9.85;7.10;;;;;;;23.44;60.46;99723.12;4394062;32;20172;-86
2023/06/20 05:07:14;;;;;;;11.20;7.00;;;;;;;23.65;60.45;99722.25;4415745;32;20608;-86
2023/06/20 05:09:39;;;;;;;11.02;7.65;;;;;;;23.65;60.46;99723.09;4423074;32;20207;-86
2023/06/20 05:12:05;;;;;;;9.73;6.25;;;;;;;23.75;60.47;99721.34;4422491;32;27913;-86
2023/06/20 05:14:30;;;;;;;10.68;7.22;;;;;;;23.87;60.47;99724.72;4406501;32;20145;-86
2023/06/20 05:16:56;;;;;;;9.75;7.28;;;;;;;23.99;60.49;99723.66;4399422;32;20152;-87
2023/06/20 05:19:21;;;;;;;11.40;7.93;;;;;;;24.02;60.48;99723.38;4404024;32;20210;-86
2023/06/20 05:21:47;;;;;;;10.25;6.82;;;;;;;24.28;60.49;99717.56;4401136;32;31276;-86
2023/06/20 05:24:12;;;;;;;10.55;7.80;;;;;;;24.27;60.49;99719.41;4408903;32;20399;-87
2023/06/20 05:26:37;;;;;;;11.35;7.25;;;;;;;24.37;60.51;99722.97;4409278;32;20475;-86
2023/06/20 05:29:03;;;;;;;10.30;7.18;;;;;;;24.50;60.50;99722.69;4422937;32;20134;-86
2023/06/20 05:31:29;;;;;;;10.60;7.82;;;;;;;24.51;60.50;99719.03;4409337;32;20375;-85
2023/06/20 05:33:54;;;;;;;10.07;7.00;;;;;;;24.55;60.51;99725.75;4395829;32;20452;-86
2023/06/20 05:36:20;;;;;;;10.20;6.87;;;;;;;24.76;60.52;99731.81;4423152;32;20142;-87
2023/06/20 05:38:48;;;;;;;10.05;7.65;;;;;;;24.82;60.52;99725.06;4422466;32;20153;-86
2023/06/20 05:41:14;;;;;;;9.05;7.50;;;;;;;25.01;60.54;99725.09;4397082;32;20090;-87
2023/06/20 05:43:39;;;;;;;12.13;7.70;;;;;;;25.30;60.54;99726.87;4395521;32;20481;-87
2023/06/20 05:46:05;;;;;;;10.85;7.97;;;;;;;25.04;60.54;99731.97;4395932;32;20104;-87
2023/06/20 05:48:32;;;;;;;11.25;7.22;;;;;;;25.15;60.54;99739.81;4407765;32;20379;-87
2023/06/20 05:51:00;;;;;;;15.60;7.70;;;;;;;25.13;60.54;99735.63;4422698;32;20545;-87
2023/06/20 05:53:28;;;;;;;12.57;7.18;;;;;;;25.27;60.55;99733.31;4408874;32;20113;-86
2023/06/20 05:55:53;;;;;;;10.07;7.62;;;;;;;25.30;60.56;99733.03;4381049;32;20450;-87
2023/06/20 05:58:19;;;;;;;9.98;7.95;;;;;;;25.31;60.55;99734.72;4405916;32;28261;-86
2023/06/20 06:00:45;;;;;;;13.60;7.07;;;;;;;25.54;60.57;99735.22;4408543;32;20163;-87
2023/06/20 06:03:12;;;;;;;10.02;7.60;;;;;;;25.53;60.56;99738.88;4408811;32;20123;-86
2023/06/20 06:05:38;;;;;;;12.43;7.87;;;;;;;25.76;60.57;99730.56;4408650;32;20081;-87
2023/06/20 06:08:04;;;;;;;8.93;7.05;;;;;;;25.91;60.58;99737.09;4422096;32;20116;-87
2023/06/20 06:10:29;;;;;;;11.43;7.35;;;;;;;26.12;60.59;99734.19;4422349;32;20125;-86
2023/06/20 06:12:54;;;;;;;11.45;7.45;;;;;;;25.97;60.58;99731.16;4383367;32;20170;-86
2023/06/20 06:15:20;;;;;;;10.73;6.68;;;;;;;26.17;60.60;99739.91;4398394;32;26373;-86
2023/06/20 06:17:45;;;;;;;8.75;6.70;;;;;;;26.26;60.60;99741.66;4378811;32;20187;-86
2023/06/20 06:20:14;;;;;;;9.93;7.05;;;;;;;26.43;60.61;99740.06;4386598;32;20178;-88
2023/06/20 06:22:39;;;;;;;9.55;6.55;;;;;;;26.51;60.61;99733.00;4405607;32;20109;-87
2023/06/20 06:25:07;;;;;;;14.38;7.30;;;;;;;26.77;60.63;99737.59;4395718;32;20116;-87
2023/06/20 06:27:34;;;;;;;11.38;7.35;;;;;;;26.93;60.63;99741.22;4408960;32;20112;-87
2023/06/20 06:29:59;;;;;;;14.32;6.37;;;;;;;27.14;60.65;99742.75;4422399;32;20093;-87
2023/06/20 06:32:25;;;;;;;10.02;6.70;;;;;;;27.25;60.65;99747.88;4408373;32;20119;-86
2023/06/20 06:34:51;;;;;;;10.70;6.65;;;;;;;27.28;60.65;99742.22;4380914;32;20165;-87
2023/06/20 06:37:16;;;;;;;9.43;6.25;;;;;;;27.28;60.65;99744.88;4390369;32;20463;-87
2023/06/20 06:39:41;;;;;;;8.57;6.20;;;;;;;27.58;60.66;99746.25;4373492;32;20162;-86
2023/06/20 06:42:07;;;;;;;7.95;6.35;;;;;;;27.92;60.69;99745.44;4405754;32;20146;-87
2023/06/20 06:44:32;;;;;;;10.43;6.25;;;;;;;28.03;60.69;99740.66;4393391;32;20110;-87
2023/06/20 06:46:58;;;;;;;9.40;6.70;;;;;;;28.00;60.69;99737.47;4406036;32;20112;-87
2023/06/20 06:49:23;;;;;;;7.47;5.82;;;;;;;28.19;60.69;99731.84;4421264;32;20132;-87
2023/06/20 06:51:48;;;;;;;9.15;5.93;;;;;;;28.51;60.70;99736.47;4407231;32;35745;-87
2023/06/20 06:54:14;;;;;;;8.27;5.95;;;;;;;28.90;60.73;99739.41;4421893;32;20133;-87
2023/06/20 06:56:39;;;;;;;9.95;6.62;;;;;;;29.01;60.75;99736.38;4408311;32;20188;-87
2023/06/20 06:59:05;;;;;;;9.45;6.00;;;;;;;29.16;60.74;99738.41;4393135;32;20128;-87
2023/06/20 07:01:30;;;;;;;6.85;5.82;;;;;;;29.24;60.75;99736.53;4404993;32;20208;-87
2023/06/20 07:03:56;;;;;;;12.32;6.65;;;;;;;29.43;60.77;99729.97;4405621;32;20113;-87
2023/06/20 07:06:21;;;;;;;9.70;6.62;;;;;;;29.54;60.76;99735.00;4418627;32;20745;-87
2023/06/20 07:08:46;;;;;;;10.63;6.57;;;;;;;29.62;60.77;99729.66;4395082;32;20106;-87
2023/06/20 07:11:12;;;;;;;9.10;6.18;;;;;;;29.69;60.77;99737.00;4422218;32;20183;-87
2023/06/20 07:13:37;;;;;;;7.40;6.43;;;;;;;29.90;60.79;99738.09;4379418;32;33405;-88
2023/06/20 07:16:03;;;;;;;8.27;5.80;;;;;;;30.01;60.79;99746.75;4378238;32;20123;-88
2023/06/20 07:18:28;;;;;;;11.73;6.20;;;;;;;30.06;60.79;99752.50;4408169;32;20453;-88
2023/06/20 07:20:57;;;;;;;9.10;7.10;;;;;;;30.11;60.79;99756.34;4406101;32;23373;-89
2023/06/20 07:23:22;;;;;;;8.40;6.60;;;;;;;30.38;60.81;99749.66;4421746;32;20184;-88
2023/06/20 07:25:50;;;;;;;12.35;6.15;;;;;;;30.31;60.81;99755.91;4407505;32;20126;-88
2023/06/20 07:28:16;;;;;;;14.15;6.55;;;;;;;30.30;60.81;99755.06;4421583;32;20209;-87
2023/06/20 07:30:41;;;;;;;8.82;6.37;;;;;;;30.48;60.82;99757.47;4407184;32;20106;-87
2023/06/20 07:33:07;;;;;;;7.37;6.50;;;;;;;30.45;60.82;99768.56;4392688;32;20090;-89
2023/06/20 07:35:32;;;;;;;9.65;6.00;;;;;;;30.51;60.81;99757.94;4414592;32;20162;-89
2023/06/20 07:37:58;;;;;;;6.87;5.45;;;;;;;30.76;60.83;99758.69;4413805;32;20089;-88
2023/06/20 07:40:24;;;;;;;9.77;5.93;;;;;;;30.83;60.84;99756.94;4407599;32;20109;-88
2023/06/20 07:42:49;;;;;;;8.38;6.97;;;;;;;30.88;60.84;99752.88;4421253;32;20529;-88
2023/06/20 07:45:14;;;;;;;9.55;6.68;;;;;;;30.94;60.84;99762.91;4394285;32;20162;-88
2023/06/20 07:47:40;;;;;;;8.98;6.50;;;;;;;30.97;60.84;99755.31;4421358;32;20141;-88
2023/06/20 07:50:06;;;;;;;11.98;6.22;;;;;;;31.03;60.84;99761.84;4420852;32;20134;-85
2023/06/20 07:52:33;;;;;;;7.62;6.22;;;;;;;31.04;60.84;99760.84;4407378;32;20390;-85
2023/06/20 07:54:58;;;;;;;7.37;5.93;;;;;;;31.13;60.85;99763.25;4410472;32;20094;-86
2023/06/20 07:57:23;;;;;;;7.30;6.47;;;;;;;31.23;60.85;99765.75;4421033;32;20462;-85
2023/06/20 07:59:49;;;;;;;12.40;6.85;;;;;;;31.24;60.85;99769.28;4420289;32;20105;-85
2023/06/20 08:02:14;;;;;;;11.15;6.28;;;;;;;31.41;60.87;99762.69;4394265;32;38900;-85
2023/06/20 08:04:40;;;;;;;7.87;6.75;;;;;;;31.49;60.87;99761.81;4404305;32;20125;-87
2023/06/20 08:07:05;;;;;;;8.93;7.03;;;;;;;31.63;60.87;99760.97;4409224;32;20082;-85
2023/06/20 08:09:31;;;;;;;7.95;6.47;;;;;;;31.63;60.87;99761.81;4395828;32;20147;-86
2023/06/20 08:11:56;;;;;;;10.43;6.80;;;;;;;31.61;60.87;99766.53;4423473;32;20371;-86
2023/06/20 08:14:22;;;;;;;9.35;6.95;;;;;;;31.76;60.88;99763.91;4394942;32;20164;-86
2023/06/20 08:16:47;;;;;;;8.88;6.35;;;;;;;31.77;60.88;99765.56;4406511;32;20106;-85
2023/06/20 08:19:13;;;;;;;9.32;6.45;;;;;;;31.93;60.89;99761.84;4416222;32;20173;-86
2023/06/20 08:21:38;;;;;;;7.55;5.97;;;;;;;32.10;60.89;99757.09;4403535;32;20089;-85
2023/06/20 08:24:05;;;;;;;9.90;6.75;;;;;;;32.23;60.90;99765.34;4418502;32;20124;-85
2023/06/20 08:26:30;;;;;;;7.95;6.28;;;;;;;32.33;60.91;99765.91;4423490;32;20145;-85
2023/06/20 08:28:56;;;;;;;9.85;7.10;;;;;;;32.29;60.91;99764.63;4409077;32;20447;-85
2023/06/20 08:31:21;;;;;;;9.98;7.45;;;;;;;32.34;60.91;99764.87;4406773;32;20106;-84
2023/06/20 08:33:46;;;;;;;14.63;7.03;;;;;;;32.54;60.92;99765.94;4418511;32;20138;-84
2023/06/20 08:36:12;;;;;;;11.30;6.97;;;;;;;32.66;60.92;99764.44;4394141;32;20558;-84
2023/06/20 08:38:38;;;;;;;8.50;7.05;;;;;;;32.81;60.93;99760.88;4418766;32;20113;-83
2023/06/20 08:41:07;;;;;;;13.73;8.05;;;;;;;32.92;60.95;99763.91;4422646;32;20485;-85
2023/06/20 08:43:34;;;;;;;10.85;7.57;;;;;;;32.76;60.94;99768.66;4421582;32;20164;-84
2023/06/20 08:45:59;;;;;;;10.25;6.82;;;;;;;32.84;60.94;99757.78;4422580;32;20094;-85
2023/06/20 08:48:24;;;;;;;9.65;7.43;;;;;;;32.84;60.94;99764.00;4421610;32;20132;-83
2023/06/20 08:50:51;;;;;;;12.70;6.70;;;;;;;33.03;60.95;99753.59;4406713;32;20086;-83
2023/06/20 08:53:16;;;;;;;15.05;7.78;;;;;;;33.24;60.96;99754.41;4405719;32;20093;-85
2023/06/20 08:55:41;;;;;;;15.18;6.93;;;;;;;33.50;60.97;99744.88;4381337;32;20177;-83
2023/06/20 08:58:08;;;;;;;7.45;6.47;;;;;;;33.42;60.97;99748.56;4408121;32;23078;-84
2023/06/20 09:00:34;;;;;;;9.40;6.90;;;;;;;33.59;60.97;99743.69;4406756;32;20455;-84
2023/06/20 09:02:59;;;;;;;12.63;7.32;;;;;;;33.82;60.99;99746.94;4408372;32;20098;-85
2023/06/20 09:05:25;;;;;;;12.55;7.45;;;;;;;33.97;61.00;99751.41;4422427;32;29087;-84
2023/06/20 09:07:51;;;;;;;9.70;7.25;;;;;;;33.82;60.99;99736.13;4406313;32;20102;-85
2023/06/20 09:10:21;;;;;;;11.45;7.93;;;;;;;33.61;60.97;99751.59;4388618;32;20102;-85
2023/06/20 09:12:50;;;;;;;11.15;6.62;;;;;;;33.55;60.97;99745.12;4383981;32;20112;-85
2023/06/20 09:15:20;;;;;;;10.80;6.70;;;;;;;33.38;60.96;99736.50;4402122;32;20146;-85
2023/06/20 09:17:49;;;;;;;7.57;6.40;;;;;;;33.53;60.97;99742.63;4406450;32;20127;-84
2023/06/20 09:20:14;;;;;;;10.05;7.05;;;;;;;33.71;60.99;99743.97;4405495;32;20112;-85
2023/06/20 09:22:40;;;;;;;9.07;7.20;;;;;;;33.75;60.98;99740.66;4406494;32;20086;-84
2023/06/20 09:25:07;;;;;;;11.52;7.95;;;;;;;34.01;61.00;99739.16;4403561;32;20125;-85
2023/06/20 09:27:34;;;;;;;9.13;6.65;;;;;;;34.15;61.00;99744.44;4408818;32;20098;-85
2023/06/20 09:30:00;;;;;;;7.47;6.47;;;;;;;34.43;61.01;99747.06;4408689;32;20112;-84
2023/06/20 09:32:25;;;;;;;9.57;6.80;;;;;;;34.79;61.03;99751.31;4396093;32;20137;-85
2023/06/20 09:34:51;;;;;;;9.00;7.10;;;;;;;34.74;61.03;99746.50;4422859;32;20098;-84
2023/06/20 09:37:17;;;;;;;7.25;6.28;;;;;;;34.91;61.04;99741.56;4422618;32;20113;-85
2023/06/20 09:39:42;;;;;;;7.78;6.25;;;;;;;35.19;61.06;99727.81;4406425;32;20097;-85
2023/06/20 09:42:12;;;;;;;7.82;7.00;;;;;;;35.19;61.06;99735.13;4406517;32;20086;-85
2023/06/20 09:44:38;;;;;;;10.85;6.90;;;;;;;35.16;61.05;99743.66;4423067;32;20102;-85
2023/06/20 09:47:04;;;;;;;8.38;6.72;;;;;;;35.20;61.06;99747.59;4422444;32;20078;-85
2023/06/20 09:49:29;;;;;;;8.80;6.35;;;;;;;35.43;61.07;99750.75;4396157;32;20120;-86
2023/06/20 09:51:55;;;;;;;10.18;6.18;;;;;;;35.69;61.08;99739.84;4405871;32;20133;-85
2023/06/20 09:54:29;;;;;;;7.93;6.47;;;;;;;35.66;61.08;99744.88;4398936;32;21791;-85
2023/06/20 09:56:57;;;;;;;7.12;6.43;;;;;;;35.72;61.08;99737.75;4395228;32;20102;-84
2023/06/20 09:59:23;;;;;;;7.28;6.57;;;;;;;35.47;61.07;99741.16;4396551;32;20090;-85
2023/06/20 10:01:48;;;;;;;7.30;6.45;;;;;;;35.62;61.07;99744.47;4392938;32;20460;-86
2023/06/20 10:04:14;;;;;;;8.10;6.12;;;;;;;35.63;61.07;99745.28;4387453;32;20590;-85
2023/06/20 10:06:39;;;;;;;6.80;6.10;;;;;;;35.61;61.07;99742.81;4395155;32;20098;-85
2023/06/20 10:09:06;;;;;;;11.50;6.10;;;;;;;35.55;61.07;99738.25;4393321;32;20083;-85
2023/06/20 10:11:36;;;;;;;9.23;6.62;;;;;;;35.74;61.09;99741.13;4408210;32;20078;-85
2023/06/20 10:14:02;;;;;;;;;;;;;;;35.93;61.09;99737.53;4406173;32;20203;-86
2023/06/20 10:16:29;;;;;;;11.48;6.75;;;;;;;36.00;61.09;99735.66;4393701;32;19985;-86
2023/06/20 10:18:54;;;;;;;6.93;5.82;;;;;;;35.72;61.08;99730.47;4401285;32;20148;-85
2023/06/20 10:21:19;;;;;;;14.77;7.00;;;;;;;35.46;61.07;99730.53;4422173;32;20109;-86
2023/06/20 10:23:45;;;;;;;8.85;6.20;;;;;;;35.45;61.07;99732.41;4393017;32;20162;-85
2023/06/20 10:26:12;;;;;;;7.20;6.47;;;;;;;35.65;61.07;99726.97;4421551;32;20126;-86
2023/06/20 10:28:38;;;;;;;6.90;6.22;;;;;;;35.83;61.09;99727.16;4406223;32;20112;-86
2023/06/20 10:31:04;;;;;;;7.72;6.20;;;;;;;35.85;61.09;99724.22;4405942;32;20094;-86
2023/06/20 10:33:30;;;;;;;7.10;6.05;;;;;;;36.11;61.10;99721.41;4403831;32;20126;-86
2023/06/20 10:36:02;;;;;;;9.43;6.20;;;;;;;36.41;61.12;99726.28;4392800;32;20168;-85
2023/06/20 10:38:28;;;;;;;7.47;6.25;;;;;;;36.48;61.12;99722.50;4404076;32;20098;-86
2023/06/20 10:41:22;;;;;;;8.30;5.53;;;;;;;36.56;61.13;99716.00;4422284;32;20082;-85
2023/06/20 10:44:00;;;;;;;8.57;5.45;;;;;;;36.65;61.13;99716.53;4395480;32;20513;-85
2023/06/20 10:46:41;;;;;;;6.55;5.95;;;;;;;36.88;61.14;99716.81;4405800;32;20161;-86
2023/06/20 10:49:08;;;;;;;6.87;6.07;;;;;;;36.98;61.14;99716.34;4412752;32;20194;-86
2023/06/20 10:51:46;;;;;;;7.65;5.55;;;;;;;36.91;61.14;99720.97;4395331;32;20439;-87
2023/06/20 10:54:11;;;;;;;7.12;5.85;;;;;;;36.78;61.13;99719.19;4421560;32;20391;-87
2023/06/20 10:56:37;;;;;;;5.87;5.28;;;;;;;36.49;61.12;99723.34;4407548;32;20165;-86
2023/06/20 10:59:12;;;;;;;9.82;5.30;;;;;;;36.10;61.10;99719.75;4421913;32;20128;-86
2023/06/20 11:01:38;;;;;;;8.05;5.47;;;;;;;36.22;61.11;99720.75;4405149;32;20487;-86
2023/06/20 11:04:09;;;;;;;7.65;5.12;;;;;;;36.19;61.10;99718.44;4400270;32;20117;-86
2023/06/20 11:06:35;;;;;;;6.50;5.35;;;;;;;36.59;61.12;99718.25;4405112;32;20124;-85
2023/06/20 11:09:00;;;;;;;6.30;5.70;;;;;;;36.56;61.13;99713.28;4415228;32;20147;-86
2023/06/20 11:11:38;;;;;;;8.50;6.05;;;;;;;36.57;61.12;99714.94;4407306;32;26137;-86
2023/06/20 11:14:13;;;;;;;8.45;6.10;;;;;;;36.51;61.12;99716.66;4405437;32;20153;-85
2023/06/20 11:16:40;;;;;;;6.45;5.75;;;;;;;36.52;61.12;99710.19;4396410;32;20106;-86
2023/06/20 11:19:05;;;;;;;6.30;5.57;;;;;;;36.55;61.13;99704.31;4403801;32;20481;-86
2023/06/20 11:21:30;;;;;;;6.85;5.70;;;;;;;36.70;61.12;99700.47;4407635;32;20105;-85
2023/06/20 11:24:03;;;;;;;8.70;5.60;;;;;;;36.90;61.14;99695.72;4421338;32;20098;-86
2023/06/20 11:26:32;;;;;;;7.07;5.75;;;;;;;37.02;61.14;99685.00;4392756;32;20128;-87
2023/06/20 11:29:01;;;;;;;8.07;6.50;;;;;;;37.14;61.15;99683.19;4404898;32;20622;-87
2023/06/20 11:31:26;;;;;;;9.05;6.72;;;;;;;36.94;61.15;99680.69;4395458;32;20098;-86